METAR Formatted Surface Weather Observation
Issued by NWS

Home | Current Version | Previous Version | Text Only | Print | Product List | Glossary On
Versions: 1 2 3 4
000
SAHW31 PHFO 251756
MTRJRF
METAR PHJR 251753Z VRB04KT 10SM CLR 26/21 A2996 RMK AO2 SLP151 60000
T02610211 10267 20222 53010


USA.gov is the U.S. government's official web portal to all federal, state and local government web resources and services.